Time;durP1;ratioP1;P1;durP2;ratioP2;P2;SDS_P1;SDS_P2;PMS_P1;PMS_P2;Temp;Humidity;BMP_temperature;BMP_pressure;BME280_temperature;BME280_humidity;BME280_pressure;Samples;Min_cycle;Max_cycle;Signal;HPM_P1;HPM_P2
2022/10/21 00:00:54;;;;;;;58.05;28.95;;;11.30;99.90;;;;;;6247096;22;20023;-83
2022/10/21 00:03:20;;;;;;;64.22;30.40;;;11.20;99.90;;;;;;6274123;22;20054;-83
2022/10/21 00:05:46;;;;;;;59.85;30.40;;;11.20;99.90;;;;;;6274515;22;20085;-83
2022/10/21 00:08:12;;;;;;;70.28;31.25;;;11.10;99.90;;;;;;6274524;22;20427;-84
2022/10/21 00:10:37;;;;;;;60.47;31.02;;;11.10;99.90;;;;;;6247475;22;20016;-83
2022/10/21 00:13:03;;;;;;;56.95;28.60;;;11.10;99.90;;;;;;6247290;22;20016;-83
2022/10/21 00:15:29;;;;;;;53.08;28.23;;;11.00;99.90;;;;;;6273654;22;20026;-83
2022/10/21 00:17:54;;;;;;;54.20;28.65;;;11.00;99.90;;;;;;6274049;22;20031;-83
2022/10/21 00:20:20;;;;;;;72.85;34.47;;;10.90;99.90;;;;;;6273967;22;20018;-83
2022/10/21 00:22:46;;;;;;;52.85;28.50;;;10.90;99.90;;;;;;6246923;22;20092;-84
2022/10/21 00:25:12;;;;;;;56.30;30.20;;;10.80;99.90;;;;;;6247578;22;20073;-84
2022/10/21 00:27:38;;;;;;;60.83;29.75;;;10.80;99.90;;;;;;6246770;22;20019;-83
2022/10/21 00:30:06;;;;;;;52.53;27.60;;;10.70;99.90;;;;;;6274633;22;20068;-83
2022/10/21 00:32:32;;;;;;;48.03;27.48;;;10.70;99.90;;;;;;6275168;22;20016;-82
2022/10/21 00:34:58;;;;;;;45.47;25.15;;;10.70;99.90;;;;;;6247208;22;20020;-83
2022/10/21 00:37:23;;;;;;;49.28;27.30;;;10.60;99.90;;;;;;6274872;22;20150;-83
2022/10/21 00:39:50;;;;;;;51.38;27.08;;;10.60;99.90;;;;;;6222388;22;20016;-83
2022/10/21 00:42:20;;;;;;;52.45;29.80;;;10.50;99.90;;;;;;6274831;22;20018;-83
2022/10/21 00:45:04;;;;;;;52.92;28.48;;;10.50;99.90;;;;;;6247477;22;20012;-83
2022/10/21 00:47:31;;;;;;;61.25;29.65;;;10.50;99.90;;;;;;6274607;22;20397;-83
2022/10/21 00:50:00;;;;;;;49.88;27.50;;;10.50;99.90;;;;;;6247500;22;20016;-83
2022/10/21 00:52:28;;;;;;;43.50;24.83;;;10.40;99.90;;;;;;6247828;22;20026;-83
2022/10/21 00:54:57;;;;;;;60.70;30.75;;;10.40;99.90;;;;;;6222061;22;20034;-83
2022/10/21 00:57:25;;;;;;;43.65;24.05;;;10.40;99.90;;;;;;6274942;22;20028;-83
2022/10/21 00:59:58;;;;;;;54.78;27.05;;;10.40;99.90;;;;;;6247785;22;20448;-83
2022/10/21 01:02:25;;;;;;;50.97;26.92;;;10.40;99.90;;;;;;6246058;22;20394;-83
2022/10/21 01:04:57;;;;;;;63.85;30.02;;;10.30;99.90;;;;;;6273892;22;20608;-83
2022/10/21 01:07:23;;;;;;;46.72;24.70;;;10.30;99.90;;;;;;6274477;22;20090;-83
2022/10/21 01:09:48;;;;;;;50.55;27.63;;;10.30;99.90;;;;;;6273926;22;20008;-83
2022/10/21 01:12:39;;;;;;;53.15;27.65;;;10.30;99.90;;;;;;6247101;22;20071;-83
2022/10/21 01:15:54;;;;;;;72.43;31.75;;;10.30;99.90;;;;;;6273635;22;20473;-83
2022/10/21 01:18:31;;;;;;;41.85;24.17;;;10.30;99.90;;;;;;6269845;22;20016;-83
2022/10/21 01:21:09;;;;;;;40.95;24.42;;;10.20;99.90;;;;;;6246777;22;20050;-82
2022/10/21 01:23:46;;;;;;;61.47;28.77;;;10.30;99.90;;;;;;6246958;22;20022;-83
2022/10/21 01:26:37;;;;;;;50.58;27.63;;;10.30;99.90;;;;;;6247487;22;20058;-83
2022/10/21 01:29:59;;;;;;;54.10;28.65;;;10.30;99.90;;;;;;6247654;22;20511;-83
2022/10/21 01:32:36;;;;;;;49.28;27.30;;;10.30;99.90;;;;;;6097902;23;20026;-83
2022/10/21 01:35:22;;;;;;;58.50;27.65;;;10.30;99.90;;;;;;6097507;23;20030;-83
2022/10/21 01:37:52;;;;;;;63.50;29.27;;;10.30;99.90;;;;;;6098641;23;20401;-83
2022/10/21 01:40:29;;;;;;;48.03;25.75;;;10.30;99.90;;;;;;6098035;23;20589;-83
2022/10/21 01:42:59;;;;;;;50.55;26.38;;;10.30;99.90;;;;;;6122757;23;20041;-83
2022/10/21 01:45:36;;;;;;;56.33;29.85;;;10.30;99.90;;;;;;6098364;23;20073;-83
2022/10/21 01:48:10;;;;;;;73.13;32.28;;;10.20;99.90;;;;;;6122809;23;20092;-83
2022/10/21 01:50:45;;;;;;;55.03;27.67;;;10.20;99.90;;;;;;6123022;23;20028;-83
2022/10/21 01:53:14;;;;;;;76.53;31.50;;;10.30;99.90;;;;;;6098777;23;20438;-83
2022/10/21 01:55:42;;;;;;;49.28;25.40;;;10.30;99.90;;;;;;6098202;23;20022;-83
2022/10/21 01:58:16;;;;;;;78.72;30.45;;;10.20;99.90;;;;;;6098867;23;20026;-82
2022/10/21 02:00:42;;;;;;;66.68;31.33;;;10.20;99.90;;;;;;6122300;23;20122;-83
2022/10/21 02:03:12;;;;;;;59.92;27.58;;;10.20;99.90;;;;;;6215811;22;20012;-83
2022/10/21 02:05:38;;;;;;;49.75;27.50;;;10.20;99.90;;;;;;6248526;22;20023;-83
2022/10/21 02:08:04;;;;;;;58.88;29.67;;;10.30;99.90;;;;;;6249313;22;20083;-83
2022/10/21 02:10:38;;;;;;;70.60;31.35;;;10.30;99.90;;;;;;6275425;22;20109;-83
2022/10/21 02:13:07;;;;;;;62.17;29.55;;;10.40;99.90;;;;;;6275844;22;20012;-83
2022/10/21 02:15:33;;;;;;;53.72;27.70;;;10.40;99.90;;;;;;6248151;22;20026;-83
2022/10/21 02:18:09;;;;;;;80.47;35.03;;;10.50;99.90;;;;;;6275942;22;20003;-83
2022/10/21 02:20:41;;;;;;;52.22;27.73;;;10.60;99.90;;;;;;6276018;22;20367;-81
2022/10/21 02:23:13;;;;;;;59.85;28.85;;;10.60;99.90;;;;;;6276087;22;20061;-83
2022/10/21 02:25:42;;;;;;;53.38;27.77;;;10.70;99.90;;;;;;6275893;22;20309;-83
2022/10/21 02:28:09;;;;;;;59.25;30.08;;;10.80;99.90;;;;;;6248203;22;20436;-83
2022/10/21 02:30:54;;;;;;;59.97;28.02;;;10.90;99.90;;;;;;6247971;22;20020;-83
2022/10/21 02:33:28;;;;;;;70.72;31.63;;;11.00;99.90;;;;;;6275296;22;20147;-83
2022/10/21 02:36:20;;;;;;;65.43;29.50;;;11.20;99.90;;;;;;6247708;22;20016;-82
2022/10/21 02:38:57;;;;;;;60.83;28.50;;;11.20;99.90;;;;;;6247773;22;20039;-83
2022/10/21 02:41:25;;;;;;;67.85;31.10;;;11.40;99.90;;;;;;6223107;22;20012;-83
2022/10/21 02:43:59;;;;;;;57.95;29.92;;;11.40;99.90;;;;;;6273700;22;20012;-83
2022/10/21 02:46:25;;;;;;;65.65;30.95;;;11.60;99.90;;;;;;6247654;22;20058;-83
2022/10/21 02:48:52;;;;;;;66.57;30.33;;;11.70;99.90;;;;;;6247368;22;20436;-83
2022/10/21 02:51:17;;;;;;;66.25;29.95;;;11.70;99.90;;;;;;6274811;22;20034;-83
2022/10/21 02:53:43;;;;;;;71.80;32.13;;;11.70;99.90;;;;;;6247059;22;20090;-84
2022/10/21 02:56:09;;;;;;;64.35;30.73;;;11.70;99.90;;;;;;6274840;22;20011;-83
2022/10/21 02:58:35;;;;;;;74.85;33.17;;;11.80;99.90;;;;;;6273843;22;20012;-83
2022/10/21 03:01:00;;;;;;;84.55;35.67;;;11.80;99.90;;;;;;6273030;22;20007;-83
2022/10/21 03:03:28;;;;;;;84.28;34.92;;;11.90;99.90;;;;;;6272677;22;20339;-83
2022/10/21 03:05:54;;;;;;;88.07;34.03;;;11.90;99.90;;;;;;6245587;22;20068;-83
2022/10/21 03:08:19;;;;;;;70.13;33.03;;;11.90;99.90;;;;;;6219519;22;20047;-82
2022/10/21 03:10:48;;;;;;;63.17;30.50;;;11.90;99.90;;;;;;6272872;22;20078;-83
2022/10/21 03:13:14;;;;;;;92.53;37.95;;;11.90;99.90;;;;;;6245120;22;20007;-83
2022/10/21 03:15:40;;;;;;;72.43;33.25;;;12.00;99.90;;;;;;6245408;22;20015;-83
2022/10/21 03:18:05;;;;;;;65.32;29.50;;;12.00;99.90;;;;;;6246398;22;20470;-83
2022/10/21 03:20:31;;;;;;;77.25;32.80;;;12.00;99.90;;;;;;6245186;22;20445;-83
2022/10/21 03:22:56;;;;;;;69.07;32.45;;;12.10;99.90;;;;;;6219922;22;20022;-83
2022/10/21 03:25:22;;;;;;;63.80;30.20;;;12.10;99.90;;;;;;6244992;22;20016;-83
2022/10/21 03:27:51;;;;;;;66.90;30.75;;;12.20;99.90;;;;;;6244957;22;20015;-83
2022/10/21 03:30:17;;;;;;;75.05;33.08;;;12.20;99.90;;;;;;6272187;22;20015;-83
2022/10/21 03:32:42;;;;;;;66.57;30.38;;;12.20;99.90;;;;;;6272082;22;20015;-83
2022/10/21 03:35:08;;;;;;;58.78;29.17;;;12.20;99.90;;;;;;6272065;22;20110;-82
2022/10/21 03:37:34;;;;;;;73.13;32.15;;;12.30;99.90;;;;;;6272900;22;20070;-83
2022/10/21 03:40:00;;;;;;;59.95;30.52;;;12.30;99.90;;;;;;6272869;22;20007;-83
2022/10/21 03:42:27;;;;;;;75.85;34.03;;;12.30;99.90;;;;;;6244151;22;20335;-83
2022/10/21 03:44:53;;;;;;;62.67;30.15;;;12.30;99.90;;;;;;6273815;22;20011;-83
2022/10/21 03:47:19;;;;;;;77.50;32.28;;;12.30;99.90;;;;;;6273885;22;20016;-83
2022/10/21 03:49:44;;;;;;;69.38;30.67;;;12.30;99.90;;;;;;6246425;22;20054;-83
2022/10/21 03:52:10;;;;;;;66.03;30.23;;;12.30;99.90;;;;;;6273670;22;20061;-83
2022/10/21 03:54:36;;;;;;;73.32;31.48;;;12.30;99.90;;;;;;6246085;22;20012;-83
2022/10/21 03:57:01;;;;;;;75.28;32.22;;;12.30;99.90;;;;;;6247726;22;20094;-83
2022/10/21 03:59:27;;;;;;;64.18;32.33;;;12.30;99.90;;;;;;6247305;22;20034;-83
2022/10/21 04:01:53;;;;;;;70.18;31.90;;;12.30;99.90;;;;;;6248386;22;20014;-83
2022/10/21 04:04:18;;;;;;;56.45;28.05;;;12.20;99.90;;;;;;6247762;22;20023;-83
2022/10/21 04:06:44;;;;;;;91.70;36.15;;;12.30;99.90;;;;;;6274325;22;20026;-83
2022/10/21 04:09:10;;;;;;;84.28;36.40;;;12.30;99.90;;;;;;6275466;22;20016;-83
2022/10/21 04:11:35;;;;;;;100.55;37.00;;;12.30;99.90;;;;;;6247513;22;20007;-83
2022/10/21 04:14:01;;;;;;;87.55;33.28;;;12.20;99.90;;;;;;6222742;22;20046;-83
2022/10/21 04:16:27;;;;;;;81.93;33.38;;;12.20;99.90;;;;;;6247794;22;20072;-83
2022/10/21 04:18:52;;;;;;;92.03;36.25;;;12.20;99.90;;;;;;6274907;22;20459;-83
2022/10/21 04:21:18;;;;;;;86.53;33.47;;;12.20;99.90;;;;;;6275370;22;20007;-83
2022/10/21 04:23:44;;;;;;;79.25;32.08;;;12.20;99.90;;;;;;6247431;22;20023;-84
2022/10/21 04:26:10;;;;;;;82.18;32.63;;;12.10;99.90;;;;;;6247022;22;20023;-83
2022/10/21 04:28:35;;;;;;;87.22;32.92;;;12.20;99.90;;;;;;6247377;22;20462;-83
2022/10/21 04:31:02;;;;;;;90.85;32.67;;;12.20;99.90;;;;;;6275249;22;20015;-83
2022/10/21 04:33:28;;;;;;;104.93;35.22;;;12.20;99.90;;;;;;6247501;22;20016;-83
2022/10/21 04:35:54;;;;;;;106.20;37.60;;;12.20;99.90;;;;;;6274564;22;20056;-83
2022/10/21 04:38:21;;;;;;;122.28;38.22;;;12.20;99.90;;;;;;6247849;22;20015;-83
2022/10/21 04:40:46;;;;;;;116.70;39.30;;;12.20;99.90;;;;;;6274879;22;20039;-83
2022/10/21 04:43:12;;;;;;;71.85;31.27;;;12.20;99.90;;;;;;6247670;22;20020;-83
2022/10/21 04:45:39;;;;;;;93.60;35.40;;;12.20;99.90;;;;;;6247238;22;20019;-83
2022/10/21 04:48:05;;;;;;;113.25;37.30;;;12.20;99.90;;;;;;6274947;22;20069;-83
2022/10/21 04:50:33;;;;;;;174.38;46.00;;;12.20;99.90;;;;;;6247407;22;20015;-82
2022/10/21 04:52:59;;;;;;;104.57;37.95;;;12.10;99.90;;;;;;6275043;22;20012;-83
2022/10/21 04:55:25;;;;;;;123.10;38.75;;;12.20;99.90;;;;;;6274671;22;20051;-83
2022/10/21 04:57:50;;;;;;;123.88;39.17;;;12.10;99.90;;;;;;6248130;22;20012;-83
2022/10/21 05:00:16;;;;;;;119.00;37.05;;;12.10;99.90;;;;;;6247990;22;20487;-83
2022/10/21 05:02:42;;;;;;;160.07;43.92;;;12.10;99.90;;;;;;6274764;22;20015;-83
2022/10/21 05:05:08;;;;;;;197.00;45.70;;;12.10;99.90;;;;;;6275302;22;20011;-83
2022/10/21 05:07:33;;;;;;;170.77;44.35;;;12.10;99.90;;;;;;6250395;22;20064;-83
2022/10/21 05:09:59;;;;;;;115.80;38.35;;;12.20;99.90;;;;;;6276625;22;20602;-83
2022/10/21 05:12:24;;;;;;;153.23;40.58;;;12.10;99.90;;;;;;6250696;22;20029;-83
2022/10/21 05:14:50;;;;;;;184.07;42.35;;;12.10;99.90;;;;;;6277327;22;20012;-83
2022/10/21 05:17:16;;;;;;;188.38;45.15;;;12.10;99.90;;;;;;6275743;22;20015;-84
2022/10/21 05:19:41;;;;;;;121.85;36.80;;;12.10;99.90;;;;;;6275204;22;20018;-83
2022/10/21 05:22:07;;;;;;;149.35;42.72;;;12.10;99.90;;;;;;6277317;22;20187;-84
2022/10/21 05:24:32;;;;;;;177.48;45.22;;;12.10;99.90;;;;;;6276092;22;20011;-85
2022/10/21 05:26:58;;;;;;;171.65;45.10;;;12.10;99.90;;;;;;6276592;22;20012;-83
2022/10/21 05:29:24;;;;;;;139.18;38.83;;;12.10;99.90;;;;;;6280188;22;20016;-84
2022/10/21 05:31:49;;;;;;;171.85;42.88;;;12.00;99.90;;;;;;6252208;22;20016;-83
2022/10/21 05:34:15;;;;;;;132.85;40.95;;;12.00;99.90;;;;;;6248234;22;20015;-84
2022/10/21 05:36:41;;;;;;;124.85;39.38;;;12.00;99.90;;;;;;6246424;22;20016;-84
2022/10/21 05:39:10;;;;;;;182.52;43.97;;;12.00;99.90;;;;;;6221504;22;20614;-84
2022/10/21 05:41:36;;;;;;;91.25;36.38;;;12.00;99.90;;;;;;6275848;22;20012;-86
2022/10/21 05:44:02;;;;;;;62.70;29.42;;;12.00;99.90;;;;;;6249778;22;20011;-83
2022/10/21 05:46:28;;;;;;;108.47;41.45;;;12.00;99.90;;;;;;6250705;22;20019;-84
2022/10/21 05:48:53;;;;;;;98.97;37.70;;;12.00;99.90;;;;;;6280580;22;20073;-85
2022/10/21 05:51:25;;;;;;;69.63;33.20;;;12.00;99.90;;;;;;6281565;22;20016;-84
2022/10/21 05:53:54;;;;;;;76.53;32.97;;;12.00;99.90;;;;;;6248972;22;20335;-85
2022/10/21 05:56:20;;;;;;;89.70;36.88;;;12.00;99.90;;;;;;6248815;22;20082;-84
2022/10/21 05:58:46;;;;;;;89.28;36.55;;;12.00;99.90;;;;;;6248308;22;20012;-85
2022/10/21 06:01:12;;;;;;;116.80;41.42;;;12.00;99.90;;;;;;6222397;22;20070;-84
2022/10/21 06:03:37;;;;;;;89.90;38.30;;;11.90;99.90;;;;;;6245936;22;20015;-84
2022/10/21 06:06:05;;;;;;;86.38;36.65;;;11.90;99.90;;;;;;6246267;22;20015;-84
2022/10/21 06:08:33;;;;;;;70.05;33.28;;;11.80;99.90;;;;;;6245317;22;20012;-86
2022/10/21 06:11:08;;;;;;;92.82;37.70;;;11.80;99.90;;;;;;6245768;22;20020;-84
2022/10/21 06:13:34;;;;;;;61.40;30.45;;;11.70;99.90;;;;;;6220189;22;20014;-84
2022/10/21 06:15:59;;;;;;;65.88;32.53;;;11.70;99.90;;;;;;6270570;22;20094;-84
2022/10/21 06:18:25;;;;;;;67.85;31.90;;;11.60;99.90;;;;;;6244735;22;20019;-85
2022/10/21 06:20:51;;;;;;;57.05;29.80;;;11.60;99.90;;;;;;6219991;22;20008;-84
2022/10/21 06:23:17;;;;;;;68.75;34.65;;;11.50;99.90;;;;;;6220517;22;20113;-84
2022/10/21 06:25:53;;;;;;;68.38;30.40;;;11.60;99.90;;;;;;6244961;22;20016;-85
2022/10/21 06:28:18;;;;;;;63.20;29.98;;;11.50;99.90;;;;;;6245565;22;20444;-84
2022/10/21 06:30:45;;;;;;;72.30;31.27;;;11.40;99.90;;;;;;6245595;22;20022;-85
2022/10/21 06:33:11;;;;;;;57.00;28.00;;;11.40;99.90;;;;;;6271930;22;20022;-84
2022/10/21 06:35:36;;;;;;;51.85;28.40;;;11.40;99.90;;;;;;6270818;22;20015;-81
2022/10/21 06:38:02;;;;;;;75.97;32.95;;;11.40;99.90;;;;;;6217900;22;20016;-82
2022/10/21 06:40:27;;;;;;;53.13;28.52;;;11.40;99.90;;;;;;6243236;22;20092;-84
2022/10/21 06:42:53;;;;;;;63.45;30.25;;;11.40;99.90;;;;;;6245721;22;20016;-83
2022/10/21 06:45:19;;;;;;;83.90;34.47;;;11.40;99.90;;;;;;6244206;22;20033;-83
2022/10/21 06:47:44;;;;;;;73.38;31.92;;;11.30;99.90;;;;;;6244052;22;20019;-83
2022/10/21 06:50:12;;;;;;;70.10;31.02;;;11.30;99.90;;;;;;6270853;22;20043;-83
2022/10/21 06:52:37;;;;;;;61.13;28.48;;;11.30;99.90;;;;;;6270399;22;20027;-83
2022/10/21 06:55:03;;;;;;;59.10;28.05;;;11.30;99.90;;;;;;6244421;22;20016;-84
2022/10/21 06:57:29;;;;;;;88.65;36.13;;;11.30;99.90;;;;;;6272635;22;20015;-83
2022/10/21 06:59:54;;;;;;;61.42;28.25;;;11.30;99.90;;;;;;6245532;22;20027;-83
2022/10/21 07:02:20;;;;;;;79.88;32.53;;;11.30;99.90;;;;;;6219191;22;20408;-85
2022/10/21 07:04:47;;;;;;;54.90;25.20;;;11.20;99.90;;;;;;6272172;22;20019;-84
2022/10/21 07:07:13;;;;;;;64.68;30.90;;;11.30;99.90;;;;;;6272167;22;20012;-84
2022/10/21 07:09:39;;;;;;;69.25;28.98;;;11.30;99.90;;;;;;6245500;22;20030;-84
2022/10/21 07:12:05;;;;;;;65.43;29.00;;;11.30;99.90;;;;;;6245083;22;20023;-83
2022/10/21 07:14:30;;;;;;;72.65;31.20;;;11.30;99.90;;;;;;6244788;22;20054;-84
2022/10/21 07:16:56;;;;;;;83.07;32.78;;;11.30;99.90;;;;;;6272086;22;20020;-85
2022/10/21 07:19:21;;;;;;;110.18;36.95;;;11.40;99.90;;;;;;6271790;22;20079;-83
2022/10/21 07:21:47;;;;;;;92.55;35.33;;;11.30;99.90;;;;;;6245134;22;20090;-84
2022/10/21 07:24:12;;;;;;;83.80;33.33;;;11.30;99.90;;;;;;6245048;22;20336;-84
2022/10/21 07:26:38;;;;;;;77.05;31.80;;;11.30;99.90;;;;;;6245794;22;20058;-85
2022/10/21 07:29:04;;;;;;;62.58;27.73;;;11.30;99.90;;;;;;6245462;22;20015;-84
2022/10/21 07:31:33;;;;;;;67.78;30.48;;;11.30;99.90;;;;;;6272808;22;20336;-84
2022/10/21 07:34:00;;;;;;;60.88;28.50;;;11.30;99.90;;;;;;6244001;22;20044;-83
2022/10/21 07:36:28;;;;;;;67.82;29.15;;;11.30;99.90;;;;;;6245173;22;20498;-83
2022/10/21 07:38:56;;;;;;;77.22;30.10;;;11.40;99.90;;;;;;6245690;22;20008;-84
2022/10/21 07:41:31;;;;;;;68.03;30.08;;;11.30;99.90;;;;;;6273068;22;20008;-85
2022/10/21 07:43:58;;;;;;;78.25;30.58;;;11.40;99.90;;;;;;6244944;22;20016;-85
2022/10/21 07:46:23;;;;;;;81.80;33.80;;;11.40;99.90;;;;;;6271883;22;20448;-84
2022/10/21 07:48:50;;;;;;;103.20;36.50;;;11.40;99.90;;;;;;6272386;22;20019;-83
2022/10/21 07:51:19;;;;;;;77.13;30.38;;;11.40;99.90;;;;;;6245197;22;20038;-84
2022/10/21 07:53:47;;;;;;;75.97;31.45;;;11.50;99.90;;;;;;6272405;22;20087;-84
2022/10/21 07:56:19;;;;;;;68.20;30.08;;;11.50;99.90;;;;;;6245227;22;20015;-84
2022/10/21 07:58:47;;;;;;;76.15;30.05;;;11.50;99.90;;;;;;6245195;22;20020;-83
2022/10/21 08:01:14;;;;;;;60.00;26.85;;;11.70;99.90;;;;;;6272671;22;20023;-83
2022/10/21 08:03:40;;;;;;;54.50;27.20;;;11.50;99.90;;;;;;6244265;22;20012;-83
2022/10/21 08:06:08;;;;;;;75.68;32.35;;;11.60;99.90;;;;;;6273321;22;20077;-84
2022/10/21 08:08:35;;;;;;;52.17;26.45;;;11.70;99.90;;;;;;6245943;22;20096;-84
2022/10/21 08:11:01;;;;;;;60.05;29.27;;;11.70;99.90;;;;;;6245572;22;20019;-84
2022/10/21 08:13:27;;;;;;;57.78;28.40;;;11.80;99.90;;;;;;6244647;22;20018;-84
2022/10/21 08:15:53;;;;;;;72.95;29.55;;;11.80;99.90;;;;;;6272816;22;20340;-84
2022/10/21 08:18:20;;;;;;;58.38;28.25;;;11.90;99.90;;;;;;6244657;22;20431;-84
2022/10/21 08:20:47;;;;;;;69.30;28.88;;;12.00;99.90;;;;;;6244497;22;20015;-84
2022/10/21 08:23:15;;;;;;;82.50;33.03;;;12.10;99.90;;;;;;6243964;22;20015;-84
2022/10/21 08:25:52;;;;;;;65.68;29.00;;;12.20;99.90;;;;;;6272906;22;20966;-84
2022/10/21 08:28:18;;;;;;;82.05;31.40;;;12.30;99.90;;;;;;6245126;22;20018;-84
2022/10/21 08:30:45;;;;;;;72.43;31.67;;;12.40;99.90;;;;;;6245051;22;20020;-84
2022/10/21 08:33:11;;;;;;;76.90;30.52;;;12.50;99.90;;;;;;6272212;22;20015;-84
2022/10/21 08:35:38;;;;;;;53.30;26.38;;;12.60;99.90;;;;;;6218736;22;20451;-84
2022/10/21 08:38:04;;;;;;;56.78;26.73;;;12.70;99.90;;;;;;6219041;22;20107;-84
2022/10/21 08:40:36;;;;;;;57.28;27.08;;;12.80;99.90;;;;;;6271099;22;20008;-84
2022/10/21 08:43:14;;;;;;;61.95;26.80;;;13.00;99.90;;;;;;6271109;22;20444;-84
2022/10/21 08:45:58;;;;;;;63.33;28.55;;;13.10;99.90;;;;;;6244091;22;20012;-84
2022/10/21 08:48:29;;;;;;;50.20;25.48;;;13.20;99.90;;;;;;6272705;22;20065;-84
2022/10/21 08:50:56;;;;;;;44.60;24.80;;;13.30;99.90;;;;;;6272184;22;20046;-84
2022/10/21 08:53:43;;;;;;;35.00;21.88;;;13.40;99.90;;;;;;6272624;22;20015;-84
2022/10/21 08:56:13;;;;;;;35.80;21.33;;;13.50;99.90;;;;;;6219891;22;20020;-83
2022/10/21 08:58:38;;;;;;;40.13;22.10;;;13.60;99.90;;;;;;6271838;22;20150;-85
2022/10/21 09:01:18;;;;;;;40.72;23.15;;;13.60;99.90;;;;;;6244562;22;20015;-84
2022/10/21 09:03:54;;;;;;;39.30;21.65;;;13.60;99.90;;;;;;6245000;22;20012;-84
2022/10/21 09:06:49;;;;;;;29.90;18.75;;;13.70;99.90;;;;;;6244776;22;20355;-84
2022/10/21 09:09:21;;;;;;;39.85;21.92;;;13.80;99.90;;;;;;6245109;22;20025;-84
2022/10/21 09:12:20;;;;;;;36.28;18.75;;;13.80;99.90;;;;;;6272168;22;20043;-84
2022/10/21 09:15:13;;;;;;;30.33;18.20;;;13.90;99.90;;;;;;6271790;22;20043;-84
2022/10/21 09:17:57;;;;;;;30.42;18.27;;;13.90;99.90;;;;;;6271736;22;20020;-84
2022/10/21 09:20:41;;;;;;;31.00;17.13;;;14.10;99.90;;;;;;6272129;22;20020;-85
2022/10/21 09:23:27;;;;;;;27.95;16.02;;;14.20;99.90;;;;;;6245230;22;20054;-85
2022/10/21 09:26:06;;;;;;;26.08;17.20;;;14.20;99.90;;;;;;6245913;22;20015;-85
2022/10/21 09:28:32;;;;;;;26.27;16.63;;;14.30;99.90;;;;;;6271389;22;20046;-85
2022/10/21 09:31:01;;;;;;;27.92;17.20;;;14.40;99.90;;;;;;6271820;22;20301;-85
2022/10/21 09:33:33;;;;;;;24.08;15.50;;;14.40;99.90;;;;;;6271959;22;20113;-86
2022/10/21 09:36:05;;;;;;;26.27;15.95;;;14.50;99.90;;;;;;6272698;22;20012;-85
2022/10/21 09:38:59;;;;;;;25.92;16.70;;;14.50;99.90;;;;;;6245094;22;20015;-85
2022/10/21 09:41:31;;;;;;;24.17;14.50;;;14.60;99.90;;;;;;6244278;22;20011;-85
2022/10/21 09:43:57;;;;;;;25.70;15.20;;;14.60;99.90;;;;;;6242961;22;20008;-86
2022/10/21 09:46:23;;;;;;;25.90;14.57;;;14.70;99.90;;;;;;6243646;22;20103;-86
2022/10/21 09:48:55;;;;;;;21.88;14.70;;;14.80;99.90;;;;;;6271105;22;20115;-85
2022/10/21 09:51:28;;;;;;;22.33;14.13;;;15.00;99.90;;;;;;6271623;22;20071;-85
2022/10/21 09:54:15;;;;;;;28.80;15.88;;;14.90;99.90;;;;;;6245245;22;20015;-85
2022/10/21 09:56:48;;;;;;;24.50;15.02;;;15.00;99.90;;;;;;6244645;22;20047;-85
2022/10/21 09:59:18;;;;;;;22.67;14.05;;;15.00;99.90;;;;;;6245466;22;20014;-85
2022/10/21 10:01:44;;;;;;;24.15;14.80;;;15.10;99.90;;;;;;6273175;22;20007;-85
2022/10/21 10:04:13;;;;;;;22.08;13.05;;;15.20;99.90;;;;;;6220398;22;20008;-84
2022/10/21 10:06:42;;;;;;;21.20;14.38;;;15.30;99.90;;;;;;6273311;22;20015;-86
2022/10/21 10:09:22;;;;;;;20.42;12.45;;;15.40;99.90;;;;;;6273838;22;20422;-86
2022/10/21 10:12:12;;;;;;;19.00;12.52;;;15.60;99.90;;;;;;6246472;22;20020;-86
2022/10/21 10:14:40;;;;;;;19.90;12.98;;;15.70;99.90;;;;;;6198370;22;20016;-86
2022/10/21 10:17:25;;;;;;;19.27;12.27;;;15.80;99.90;;;;;;6274102;22;20016;-86
2022/10/21 10:20:18;;;;;;;23.52;12.32;;;15.90;99.90;;;;;;6221222;22;20016;-86
2022/10/21 10:22:46;;;;;;;20.77;12.02;;;15.80;99.90;;;;;;6241177;22;20462;-86
2022/10/21 10:25:20;;;;;;;16.52;12.57;;;15.80;99.90;;;;;;6246077;22;20015;-86
2022/10/21 10:27:53;;;;;;;22.20;13.35;;;15.90;99.90;;;;;;6272787;22;20011;-86
2022/10/21 10:30:23;;;;;;;17.77;12.40;;;15.90;99.90;;;;;;6246268;22;20018;-86
2022/10/21 10:32:51;;;;;;;18.73;12.52;;;15.90;99.90;;;;;;6246304;22;20012;-85
2022/10/21 10:35:29;;;;;;;17.30;11.38;;;15.90;99.90;;;;;;6245756;22;20016;-86
2022/10/21 10:38:01;;;;;;;22.92;12.55;;;15.90;99.90;;;;;;6220445;22;20020;-86
2022/10/21 10:40:38;;;;;;;17.98;12.80;;;16.00;99.90;;;;;;6271375;22;20008;-86
2022/10/21 10:43:21;;;;;;;18.25;11.40;;;16.00;99.90;;;;;;6217682;22;20428;-85
2022/10/21 10:45:59;;;;;;;18.50;11.95;;;16.10;99.90;;;;;;6272991;22;20371;-85
2022/10/21 10:48:40;;;;;;;19.58;11.45;;;16.10;99.90;;;;;;6242459;22;20019;-85
2022/10/21 10:51:26;;;;;;;18.95;11.25;;;16.10;99.90;;;;;;6217161;22;20015;-85
2022/10/21 10:54:02;;;;;;;19.50;11.73;;;16.20;99.90;;;;;;6242535;22;20016;-86
2022/10/21 10:56:31;;;;;;;17.35;11.25;;;16.20;99.90;;;;;;6218900;22;20011;-85
2022/10/21 10:59:15;;;;;;;18.58;10.48;;;16.20;99.90;;;;;;6246750;22;20019;-85
2022/10/21 11:01:54;;;;;;;17.73;11.02;;;16.20;99.90;;;;;;6246693;22;20424;-85
2022/10/21 11:04:40;;;;;;;18.48;11.63;;;16.20;99.90;;;;;;6246351;22;20073;-86
2022/10/21 11:07:19;;;;;;;15.05;10.32;;;16.20;99.90;;;;;;6274152;22;20370;-85
2022/10/21 11:09:46;;;;;;;15.02;10.18;;;16.20;99.90;;;;;;6246960;22;20317;-84
2022/10/21 11:12:21;;;;;;;19.10;11.77;;;16.20;99.90;;;;;;6221013;22;20018;-84
2022/10/21 11:14:53;;;;;;;18.50;11.68;;;16.20;99.90;;;;;;6246154;22;20098;-84
2022/10/21 11:17:25;;;;;;;19.08;11.00;;;16.30;99.90;;;;;;6220717;22;20064;-84
2022/10/21 11:20:05;;;;;;;18.65;11.30;;;16.30;99.90;;;;;;6273244;22;20015;-84
2022/10/21 11:22:49;;;;;;;16.58;10.38;;;16.30;99.90;;;;;;6246974;22;20444;-84
2022/10/21 11:25:32;;;;;;;19.23;11.05;;;16.40;99.90;;;;;;6273442;22;20018;-84
2022/10/21 11:28:35;;;;;;;18.67;10.93;;;16.40;99.90;;;;;;6246481;22;20016;-85
2022/10/21 11:31:35;;;;;;;16.38;10.20;;;16.50;99.90;;;;;;6273884;22;20008;-85
2022/10/21 11:34:21;;;;;;;12.95;8.63;;;16.50;99.90;;;;;;6236139;22;20041;-85
2022/10/21 11:37:20;;;;;;;17.70;9.65;;;16.60;99.90;;;;;;6271439;22;20448;-83
2022/10/21 11:40:02;;;;;;;17.30;9.50;;;16.60;99.90;;;;;;6245011;22;20034;-85
2022/10/21 11:42:41;;;;;;;14.35;9.38;;;16.60;99.90;;;;;;6272894;22;20047;-85
2022/10/21 11:45:57;;;;;;;18.67;9.77;;;16.60;99.90;;;;;;6273579;22;20418;-85
2022/10/21 11:48:38;;;;;;;14.57;9.18;;;16.60;99.90;;;;;;6120412;23;20017;-85
2022/10/21 11:51:21;;;;;;;19.10;9.63;;;16.60;99.90;;;;;;6120586;23;20010;-85
2022/10/21 11:54:05;;;;;;;16.67;10.43;;;16.60;99.90;;;;;;6095985;23;20069;-84
2022/10/21 11:56:38;;;;;;;23.33;10.10;;;16.60;99.90;;;;;;6119641;23;20025;-84
2022/10/21 11:59:13;;;;;;;14.10;9.48;;;16.60;99.90;;;;;;6096558;23;20722;-84
2022/10/21 12:01:57;;;;;;;18.48;9.95;;;16.60;99.90;;;;;;6120074;23;20430;-85
2022/10/21 12:04:44;;;;;;;14.57;9.30;;;16.60;99.90;;;;;;6096072;23;20017;-84
2022/10/21 12:07:41;;;;;;;19.08;9.90;;;16.60;99.90;;;;;;6118438;23;20025;-84
2022/10/21 12:10:46;;;;;;;13.27;9.05;;;16.60;99.90;;;;;;6091759;23;20048;-84
2022/10/21 12:13:20;;;;;;;18.00;8.63;;;16.60;99.90;;;;;;6119103;23;20018;-84
2022/10/21 12:15:51;;;;;;;;;;;16.60;99.90;;;;;;6119232;23;20265;-85
2022/10/21 12:18:21;;;;;;;14.50;8.70;;;16.60;99.90;;;;;;6119576;23;19923;-85
2022/10/21 12:20:51;;;;;;;16.08;9.43;;;16.60;99.90;;;;;;6095271;23;20014;-84
2022/10/21 12:23:27;;;;;;;20.50;10.25;;;16.60;99.90;;;;;;6243337;22;20012;-85
2022/10/21 12:26:02;;;;;;;19.33;9.85;;;16.60;99.90;;;;;;6274176;22;20108;-85
2022/10/21 12:28:34;;;;;;;15.40;8.57;;;16.60;99.90;;;;;;6221421;22;20026;-86
2022/10/21 12:31:38;;;;;;;16.42;9.18;;;16.70;99.90;;;;;;6246770;22;20019;-86
2022/10/21 12:34:07;;;;;;;12.60;8.77;;;16.60;99.90;;;;;;6246750;22;20058;-85
2022/10/21 12:36:49;;;;;;;15.32;8.75;;;16.70;99.90;;;;;;6246118;22;20734;-85
2022/10/21 12:39:31;;;;;;;13.50;8.77;;;16.60;99.90;;;;;;6272985;22;20451;-85
2022/10/21 12:42:16;;;;;;;14.98;9.15;;;16.60;99.90;;;;;;6272837;22;20034;-85
2022/10/21 12:44:47;;;;;;;15.10;9.30;;;16.70;99.90;;;;;;6245866;22;20016;-85
2022/10/21 12:47:43;;;;;;;20.40;9.40;;;16.70;99.90;;;;;;6246371;22;20445;-85
2022/10/21 12:50:30;;;;;;;15.20;8.75;;;16.70;99.90;;;;;;6270074;22;20352;-86